Time;durP1;ratioP1;P1;durP2;ratioP2;P2;SDS_P1;SDS_P2;PMS_P1;PMS_P2;Temp;Humidity;BMP_temperature;BMP_pressure;BME280_temperature;BME280_humidity;BME280_pressure;Samples;Min_cycle;Max_cycle;Signal;HPM_P1;HPM_P2
2023/03/14 00:00:28;;;;;;;2.20;2.10;;;;;;;14.98;49.21;98158.41;10361356;28;20276;-66
2023/03/14 00:05:29;;;;;;;2.00;1.90;;;;;;;16.19;47.64;98080.63;10358779;28;20225;-66
2023/03/14 00:10:31;;;;;;;2.20;2.10;;;;;;;14.48;50.19;98135.22;10330123;28;20294;-65
2023/03/14 00:15:34;;;;;;;1.97;1.87;;;;;;;16.07;47.40;98066.56;10355168;28;20245;-66
2023/03/14 00:20:36;;;;;;;1.30;1.30;;;;;;;12.96;51.29;98125.28;10348134;28;20256;-65
2023/03/14 00:25:37;;;;;;;2.17;2.07;;;;;;;13.41;52.22;98180.91;10347920;28;20229;-66
2023/03/14 00:30:39;;;;;;;1.50;1.37;;;;;;;16.59;47.26;98073.78;10349739;28;20233;-65
2023/03/14 00:35:41;;;;;;;2.10;2.00;;;;;;;13.79;51.84;98179.41;10349765;28;20264;-66
2023/03/14 00:40:42;;;;;;;1.60;1.50;;;;;;;15.09;48.88;98103.56;10345337;28;20284;-65
2023/03/14 00:45:44;;;;;;;1.87;1.70;;;;;;;13.67;51.56;98182.97;10353535;28;20610;-66
2023/03/14 00:50:46;;;;;;;2.03;1.90;;;;;;;16.03;48.65;98074.38;10350945;28;20291;-66
2023/03/14 00:55:49;;;;;;;2.30;2.20;;;;;;;14.99;50.13;98090.00;10358588;28;20229;-66
2023/03/14 01:00:50;;;;;;;1.90;1.80;;;;;;;16.20;48.39;98089.56;10350324;28;20253;-65
2023/03/14 01:05:52;;;;;;;2.10;2.00;;;;;;;15.41;49.33;98081.22;10344792;28;20244;-66
2023/03/14 01:10:53;;;;;;;3.47;2.00;;;;;;;14.65;51.36;98121.69;10354866;28;20279;-66
2023/03/14 01:16:01;;;;;;;11.57;2.70;;;;;;;13.75;51.42;98179.06;10356779;28;20611;-66
2023/03/14 01:21:09;;;;;;;2.33;2.03;;;;;;;14.61;50.61;98156.38;10350619;28;20229;-66
2023/03/14 01:26:13;;;;;;;2.00;1.80;;;;;;;14.91;51.24;98071.63;10356850;28;20241;-65
2023/03/14 01:31:16;;;;;;;2.57;2.03;;;;;;;13.70;52.61;98172.78;10352351;28;20227;-65
2023/03/14 01:36:18;;;;;;;2.40;2.20;;;;;;;14.26;52.11;98095.66;10350347;28;20308;-66
2023/03/14 01:41:23;;;;;;;2.50;2.30;;;;;;;14.83;50.24;98053.22;10349611;28;20224;-66
2023/03/14 01:46:29;;;;;;;1.80;1.63;;;;;;;15.09;49.13;98073.94;10348269;28;20635;-66
2023/03/14 01:51:35;;;;;;;3.03;2.10;;;;;;;16.37;47.51;98054.31;10349861;28;20252;-66
2023/03/14 01:56:38;;;;;;;2.97;1.90;;;;;;;16.09;47.63;98050.09;10347273;28;20758;-65
2023/03/14 02:01:44;;;;;;;2.50;2.30;;;;;;;16.75;45.99;98060.31;10348685;28;20237;-66
2023/03/14 02:07:10;;;;;;;2.50;2.23;;;;;;;16.61;46.86;98039.22;10350425;28;20810;-66
2023/03/14 02:12:16;;;;;;;2.57;1.90;;;;;;;16.61;46.74;98033.84;10350806;28;20229;-66
2023/03/14 02:17:19;;;;;;;1.73;1.63;;;;;;;15.86;47.00;98012.50;10352458;28;20232;-65
2023/03/14 02:22:21;;;;;;;2.40;2.20;;;;;;;13.59;49.58;98008.69;10352056;28;20230;-66
2023/03/14 02:27:23;;;;;;;2.40;2.20;;;;;;;15.39;48.36;98007.91;10350137;28;20263;-66
2023/03/14 02:32:27;;;;;;;2.33;2.13;;;;;;;14.86;47.72;98052.72;10343905;28;20225;-66
2023/03/14 02:37:53;;;;;;;1.80;1.70;;;;;;;14.99;49.12;98014.59;10345825;28;20251;-66
2023/03/14 02:42:54;;;;;;;2.63;2.10;;;;;;;14.26;49.81;98054.50;10352347;28;20588;-66
2023/03/14 02:48:02;;;;;;;1.63;1.53;;;;;;;14.93;48.53;98000.28;10353932;28;20232;-63
2023/03/14 02:53:04;;;;;;;2.17;1.83;;;;;;;13.39;50.30;98094.38;10348753;28;20237;-66
2023/03/14 02:58:05;;;;;;;2.30;2.20;;;;;;;15.96;47.08;97978.56;10346554;28;20250;-66
2023/03/14 03:03:07;;;;;;;4.10;2.50;;;;;;;14.77;47.51;97998.50;10345454;28;20840;-66
2023/03/14 03:08:09;;;;;;;2.23;2.10;;;;;;;14.97;47.63;97997.88;10345817;28;20260;-65
2023/03/14 03:13:11;;;;;;;4.23;2.20;;;;;;;16.02;45.80;97939.75;10345879;28;20631;-65
2023/03/14 03:18:12;;;;;;;3.57;1.70;;;;;;;15.54;46.42;97925.50;10343698;28;20736;-66
2023/03/14 03:23:14;;;;;;;7.27;3.73;;;;;;;13.73;48.54;97990.31;10344163;28;20293;-65
2023/03/14 03:28:16;;;;;;;3.33;2.30;;;;;;;13.36;48.84;97979.34;10351809;28;20236;-66
2023/03/14 03:33:17;;;;;;;2.00;1.80;;;;;;;15.40;46.32;97890.91;10337638;28;20230;-64
2023/03/14 03:38:20;;;;;;;2.50;2.30;;;;;;;14.59;46.83;97917.06;10349891;28;20256;-66
2023/03/14 03:43:21;;;;;;;2.27;1.93;;;;;;;15.33;46.12;97885.81;10339588;28;20249;-66
2023/03/14 03:48:23;;;;;;;2.47;1.87;;;;;;;13.91;46.40;97961.50;10346959;28;20237;-66
2023/03/14 03:53:25;;;;;;;3.30;2.43;;;;;;;14.88;45.79;97913.25;10340771;28;20229;-66
2023/03/14 03:58:34;;;;;;;1.77;1.67;;;;;;;14.08;45.42;97923.81;10348381;28;20229;-65
2023/03/14 04:03:38;;;;;;;3.80;2.70;;;;;;;14.49;44.65;97895.44;10331992;28;20323;-66
2023/03/14 04:08:41;;;;;;;3.17;2.07;;;;;;;15.06;45.17;97872.44;10316347;28;20229;-66
2023/03/14 04:13:42;;;;;;;2.37;2.17;;;;;;;14.53;45.59;97925.34;10351990;28;20233;-66
2023/03/14 04:18:44;;;;;;;2.83;2.50;;;;;;;11.93;48.12;97716.59;10355674;28;20229;-65
2023/03/14 04:23:46;;;;;;;6.67;2.33;;;;;;;15.44;43.78;97867.78;10361680;28;20225;-66
2023/03/14 04:28:47;;;;;;;2.10;2.00;;;;;;;15.06;44.82;97856.25;10356399;28;20233;-66
2023/03/14 04:33:49;;;;;;;4.23;2.53;;;;;;;13.79;44.82;97881.00;10358234;28;20252;-69
2023/03/14 04:38:50;;;;;;;2.87;2.20;;;;;;;15.55;43.98;97806.66;10354574;28;20382;-66
2023/03/14 04:43:52;;;;;;;2.37;2.00;;;;;;;12.55;47.02;97798.00;10358143;28;21079;-65
2023/03/14 04:48:55;;;;;;;2.60;2.40;;;;;;;14.01;44.49;97883.66;10356990;28;20241;-66
2023/03/14 04:53:57;;;;;;;2.43;2.33;;;;;;;13.61;46.00;97890.19;10353157;28;20228;-65
2023/03/14 04:58:59;;;;;;;2.40;2.20;;;;;;;14.72;45.06;97804.63;10357606;28;20233;-65
2023/03/14 05:04:00;;;;;;;2.50;1.60;;;;;;;14.58;44.62;97885.81;10356499;28;20704;-65
2023/03/14 05:09:04;;;;;;;5.17;2.63;;;;;;;14.82;44.69;97798.53;10354634;28;21266;-66
2023/03/14 05:14:06;;;;;;;1.90;1.80;;;;;;;14.32;44.95;97857.06;10356336;28;20911;-66
2023/03/14 05:19:08;;;;;;;3.60;1.87;;;;;;;13.56;45.96;97858.69;10353482;28;20236;-65
2023/03/14 05:24:09;;;;;;;5.50;2.00;;;;;;;11.53;48.46;97652.41;10351574;28;20273;-65
2023/03/14 05:29:11;;;;;;;2.80;1.80;;;;;;;13.42;46.28;97882.44;10354757;28;20228;-65
2023/03/14 05:34:13;;;;;;;4.20;2.23;;;;;;;15.50;43.57;97750.00;10346515;28;20637;-65
2023/03/14 05:39:14;;;;;;;2.60;2.03;;;;;;;15.34;43.79;97741.09;10354326;28;20237;-65
2023/03/14 05:44:16;;;;;;;3.00;1.80;;;;;;;14.47;44.57;97776.47;10353953;28;20229;-65
2023/03/14 05:49:18;;;;;;;2.80;2.50;;;;;;;15.09;44.45;97731.84;10353373;28;20225;-65
2023/03/14 05:54:19;;;;;;;2.13;1.90;;;;;;;13.78;45.56;97829.09;10355908;28;20237;-65
2023/03/14 05:59:21;;;;;;;5.00;2.03;;;;;;;14.55;44.77;97759.03;10353209;28;20263;-66
2023/03/14 06:04:24;;;;;;;2.47;2.27;;;;;;;14.66;44.52;97779.56;10350904;28;20239;-66
2023/03/14 06:09:25;;;;;;;5.17;2.20;;;;;;;14.15;45.04;97793.44;10353501;28;20226;-66
2023/03/14 06:14:27;;;;;;;2.47;2.27;;;;;;;15.82;42.43;97712.06;10351833;28;20225;-64
2023/03/14 06:19:29;;;;;;;3.33;1.80;;;;;;;14.80;44.59;97749.47;10354699;28;20225;-66
2023/03/14 06:24:30;;;;;;;1.80;1.70;;;;;;;16.26;42.79;97686.44;10353019;28;20277;-66
2023/03/14 06:29:32;;;;;;;2.63;2.00;;;;;;;15.38;43.38;97700.94;10349178;28;20226;-65
2023/03/14 06:34:34;;;;;;;1.63;1.50;;;;;;;13.50;44.91;97767.53;10353151;28;20245;-66
2023/03/14 06:39:35;;;;;;;2.33;2.13;;;;;;;16.29;41.90;97699.38;10347301;28;20857;-64
2023/03/14 06:44:37;;;;;;;3.80;2.60;;;;;;;15.47;42.68;97747.84;10349411;28;20229;-66
2023/03/14 06:49:39;;;;;;;3.07;1.80;;;;;;;15.06;42.70;97745.84;10351683;28;20221;-65
2023/03/14 06:54:40;;;;;;;3.17;2.10;;;;;;;16.77;41.25;97705.19;10354647;28;20260;-65
2023/03/14 06:59:42;;;;;;;2.67;1.67;;;;;;;16.54;41.52;97689.63;10347950;28;20234;-65
2023/03/14 07:04:43;;;;;;;2.70;1.93;;;;;;;13.10;44.32;97637.91;10350425;28;20244;-64
2023/03/14 07:09:45;;;;;;;2.97;1.93;;;;;;;16.13;41.38;97705.84;10345343;28;20509;-65
2023/03/14 07:14:47;;;;;;;4.00;2.00;;;;;;;15.65;42.73;97708.81;10326718;28;20249;-65
2023/03/14 07:19:48;;;;;;;3.23;2.00;;;;;;;15.37;42.03;97739.72;10334652;28;20240;-66
2023/03/14 07:24:50;;;;;;;2.60;2.40;;;;;;;17.35;39.87;97682.22;10324488;28;20237;-66
2023/03/14 07:29:51;;;;;;;1.40;1.40;;;;;;;15.84;41.79;97765.72;10342644;28;20237;-66
2023/03/14 07:34:53;;;;;;;1.70;1.60;;;;;;;15.23;42.12;97798.72;10323104;28;20241;-65
2023/03/14 07:39:55;;;;;;;2.80;2.47;;;;;;;16.48;40.68;97690.69;10334756;28;20237;-65
2023/03/14 07:44:56;;;;;;;2.23;1.50;;;;;;;16.49;40.68;97744.41;10316567;28;20234;-65
2023/03/14 07:49:58;;;;;;;1.90;1.80;;;;;;;16.02;41.79;97750.91;10341355;28;20239;-66
2023/03/14 07:54:59;;;;;;;2.63;1.70;;;;;;;16.95;40.39;97728.09;10352049;28;20700;-65
2023/03/14 08:00:02;;;;;;;2.97;1.90;;;;;;;16.96;40.37;97748.63;10355929;28;20241;-65
2023/03/14 08:05:04;;;;;;;3.23;1.90;;;;;;;16.71;39.99;97730.59;10354846;28;20230;-65
2023/03/14 08:10:07;;;;;;;3.80;1.70;;;;;;;17.07;40.73;97695.34;10358404;28;20628;-64
2023/03/14 08:15:09;;;;;;;2.00;1.80;;;;;;;17.22;41.85;97699.88;10359685;28;20230;-65
2023/03/14 08:20:12;;;;;;;1.50;1.40;;;;;;;13.58;44.56;97646.97;10356951;28;20243;-66
2023/03/14 08:25:15;;;;;;;1.63;1.50;;;;;;;16.07;43.32;97699.66;10318095;28;20234;-66
2023/03/14 08:30:18;;;;;;;1.80;1.70;;;;;;;15.38;42.71;97796.06;10349695;28;20233;-66
2023/03/14 08:35:20;;;;;;;1.97;1.87;;;;;;;16.64;41.49;97731.97;10358854;28;20261;-66
2023/03/14 08:40:21;;;;;;;1.70;1.60;;;;;;;15.71;41.87;97748.19;10351454;28;20252;-66
2023/03/14 08:45:24;;;;;;;1.37;1.37;;;;;;;15.56;42.98;97769.75;10356394;28;20233;-65
2023/03/14 08:50:26;;;;;;;1.57;1.57;;;;;;;15.60;42.90;97779.72;10356567;28;20316;-66
2023/03/14 08:55:28;;;;;;;1.40;1.40;;;;;;;15.87;42.42;97755.22;10358533;28;20249;-66
2023/03/14 09:00:29;;;;;;;1.70;1.20;;;;;;;16.30;42.37;97717.19;10347461;28;20240;-65
2023/03/14 09:05:34;;;;;;;1.40;1.30;;;;;;;15.65;42.03;97752.75;10356517;28;20237;-65
2023/03/14 09:10:38;;;;;;;2.03;1.60;;;;;;;15.90;42.56;97723.41;10324440;28;20226;-65
2023/03/14 09:15:42;;;;;;;2.00;1.90;;;;;;;16.05;42.09;97723.41;10350977;28;20735;-66
2023/03/14 09:20:43;;;;;;;3.00;2.67;;;;;;;15.13;42.33;97726.72;10356470;28;20225;-65
2023/03/14 09:25:45;;;;;;;2.00;1.90;;;;;;;16.61;42.44;97704.41;10357209;28;20232;-65
2023/03/14 09:30:47;;;;;;;2.90;1.87;;;;;;;17.73;40.82;97669.00;10357466;28;20233;-65
2023/03/14 09:35:48;;;;;;;1.80;1.70;;;;;;;17.01;41.70;97704.59;10348539;28;20238;-66
2023/03/14 09:40:51;;;;;;;1.97;1.50;;;;;;;15.91;43.68;97765.47;10354602;28;20312;-66
2023/03/14 09:45:53;;;;;;;2.20;2.03;;;;;;;14.56;45.36;97757.94;10350718;28;20241;-66
2023/03/14 09:50:57;;;;;;;1.70;1.70;;;;;;;13.53;46.79;97651.50;10347623;28;20243;-65
2023/03/14 09:55:59;;;;;;;3.37;2.10;;;;;;;15.29;45.44;97792.28;10346400;28;20241;-66
2023/03/14 10:01:01;;;;;;;2.10;1.90;;;;;;;14.88;46.17;97808.22;10356711;28;20784;-66
2023/03/14 10:06:11;;;;;;;1.90;1.80;;;;;;;13.41;47.18;97654.34;10352890;28;20635;-66
2023/03/14 10:11:17;;;;;;;1.53;1.43;;;;;;;15.63;45.93;97803.44;10352437;28;20237;-66
2023/03/14 10:16:29;;;;;;;1.70;1.60;;;;;;;13.58;48.44;97702.59;10352570;28;20252;-64
2023/03/14 10:21:35;;;;;;;1.50;1.50;;;;;;;13.60;48.52;97765.78;10357204;28;20265;-65
2023/03/14 10:26:37;;;;;;;2.00;1.90;;;;;;;13.32;48.75;97712.28;10352616;28;20241;-65
2023/03/14 10:32:03;;;;;;;2.20;1.97;;;;;;;14.90;47.22;97854.56;10355614;28;20613;-66
2023/03/14 10:37:21;;;;;;;2.30;2.13;;;;;;;16.81;45.15;97737.84;10351282;28;20241;-64
2023/03/14 10:42:31;;;;;;;2.10;2.00;;;;;;;13.72;49.46;97843.56;10349047;28;20722;-65
2023/03/14 10:47:33;;;;;;;2.20;2.10;;;;;;;12.48;51.00;97663.22;10350174;28;20238;-65
2023/03/14 10:52:46;;;;;;;2.77;1.83;;;;;;;16.20;46.49;97817.81;10353943;28;20233;-65
2023/03/14 10:58:03;;;;;;;2.27;2.10;;;;;;;17.07;45.69;97786.41;10350692;28;20859;-65
2023/03/14 11:06:50;;;;;;;1.57;1.47;;;;;;;10.75;57.24;97911.53;10479724;28;20795;-64
2023/03/14 11:11:51;;;;;;;1.63;1.40;;;;;;;10.44;55.46;97964.25;10485108;28;20653;-63
2023/03/14 11:17:02;;;;;;;1.70;1.60;;;;;;;9.93;54.38;97985.06;10474723;28;20821;-63
2023/03/14 11:22:27;;;;;;;2.27;2.17;;;;;;;9.39;52.91;97984.81;10486240;28;20234;-66
2023/03/14 11:27:43;;;;;;;2.20;2.10;;;;;;;9.76;52.51;97988.31;10457506;28;20297;-66
2023/03/14 11:32:54;;;;;;;2.50;2.30;;;;;;;8.43;54.49;98042.72;10484048;28;20606;-65
2023/03/14 11:38:26;;;;;;;2.53;2.33;;;;;;;8.54;53.15;98034.06;10473287;28;20298;-66
2023/03/14 11:43:42;;;;;;;2.40;2.30;;;;;;;7.68;52.31;98102.56;10478573;28;20223;-64
2023/03/14 11:49:03;;;;;;;2.20;2.10;;;;;;;10.33;49.61;98084.28;10479779;28;20223;-66
2023/03/14 11:54:27;;;;;;;3.37;2.13;;;;;;;9.84;48.02;98142.19;10473732;28;20238;-65
2023/03/14 11:59:42;;;;;;;2.77;2.50;;;;;;;9.96;48.01;98196.53;10469063;28;20231;-66
2023/03/14 12:04:50;;;;;;;2.07;1.97;;;;;;;10.85;47.34;98148.09;10474366;28;20243;-66
2023/03/14 12:09:54;;;;;;;2.00;1.90;;;;;;;10.32;46.83;98231.56;10465710;28;20231;-65
2023/03/14 12:14:59;;;;;;;2.37;2.17;;;;;;;10.39;45.17;98244.88;10469055;28;20229;-65
2023/03/14 12:20:15;;;;;;;2.27;2.10;;;;;;;8.91;43.96;98340.22;10433744;28;20236;-65
2023/03/14 12:25:23;;;;;;;2.43;2.20;;;;;;;9.76;42.46;98318.72;10432235;28;20300;-65
2023/03/14 12:30:29;;;;;;;1.60;1.50;;;;;;;11.54;42.20;98270.94;10439135;28;20765;-65
2023/03/14 12:35:51;;;;;;;2.70;2.00;;;;;;;9.37;42.44;98379.31;10433960;28;20591;-66
2023/03/14 12:41:19;;;;;;;1.60;1.60;;;;;;;9.82;40.91;98371.31;10443478;28;20263;-65
2023/03/14 12:46:24;;;;;;;2.13;2.00;;;;;;;9.51;40.08;98406.78;10442066;28;20232;-65
2023/03/14 12:51:34;;;;;;;2.70;2.50;;;;;;;9.33;39.75;98439.47;10441490;28;20210;-66
2023/03/14 12:56:51;;;;;;;2.47;2.27;;;;;;;9.59;40.03;98449.28;10446337;28;20240;-65
2023/03/14 13:02:14;;;;;;;2.80;2.10;;;;;;;9.08;40.00;98490.00;10445453;28;20248;-66
2023/03/14 13:07:35;;;;;;;2.30;2.20;;;;;;;9.69;39.20;98464.88;10438380;28;20234;-65
2023/03/14 13:12:48;;;;;;;2.80;2.00;;;;;;;9.41;39.73;98508.69;10442781;28;20230;-65
2023/03/14 13:17:51;;;;;;;1.77;1.67;;;;;;;9.33;39.12;98491.03;10435164;28;20668;-65
2023/03/14 13:22:54;;;;;;;2.20;2.00;;;;;;;8.80;39.19;98526.50;10453953;28;20224;-65
2023/03/14 13:27:56;;;;;;;2.20;2.10;;;;;;;9.38;39.81;98539.28;10440730;28;20255;-65
2023/03/14 13:33:03;;;;;;;3.77;2.20;;;;;;;9.09;38.21;98585.88;10445201;28;20234;-65
2023/03/14 13:38:13;;;;;;;4.37;1.70;;;;;;;9.09;37.39;98577.88;10443955;28;20228;-65
2023/03/14 13:43:18;;;;;;;3.87;2.27;;;;;;;8.69;38.44;98595.63;10442359;28;20292;-65
2023/03/14 13:48:22;;;;;;;2.20;1.70;;;;;;;9.15;37.47;98598.44;10441200;28;20235;-65
2023/03/14 13:53:24;;;;;;;2.30;2.00;;;;;;;9.05;39.11;98622.03;10445828;28;20685;-65
2023/03/14 13:58:29;;;;;;;2.50;2.30;;;;;;;10.05;37.70;98622.00;10440909;28;20274;-65
2023/03/14 14:03:34;;;;;;;2.97;2.10;;;;;;;9.07;39.23;98660.00;10441909;28;20241;-66
2023/03/14 14:08:40;;;;;;;2.80;2.30;;;;;;;9.73;37.95;98653.06;10443334;28;20238;-65
2023/03/14 14:13:42;;;;;;;3.53;1.97;;;;;;;9.44;37.69;98649.78;10445591;28;20220;-65
2023/03/14 14:18:44;;;;;;;3.40;1.97;;;;;;;10.98;37.78;98606.63;10447152;28;20282;-65
2023/03/14 14:23:46;;;;;;;3.80;1.80;;;;;;;11.01;37.79;98607.00;10438610;28;20323;-65
2023/03/14 14:28:59;;;;;;;4.37;1.90;;;;;;;10.86;36.74;98642.09;10441290;28;20231;-66
2023/03/14 14:34:03;;;;;;;3.70;2.03;;;;;;;10.35;37.90;98679.53;10441272;28;20262;-65
2023/03/14 14:39:17;;;;;;;3.73;2.47;;;;;;;10.50;37.82;98691.63;10434778;28;20332;-65
2023/03/14 14:44:27;;;;;;;2.57;2.00;;;;;;;9.87;38.25;98710.84;10440025;28;20227;-65
2023/03/14 14:49:33;;;;;;;4.83;2.60;;;;;;;10.28;37.98;98730.34;10436335;28;20237;-66
2023/03/14 14:54:46;;;;;;;2.60;2.40;;;;;;;10.38;38.75;98714.69;10435352;28;20232;-66
2023/03/14 14:59:49;;;;;;;3.87;2.23;;;;;;;10.92;38.28;98685.94;10441373;28;20769;-65
2023/03/14 15:04:54;;;;;;;3.73;2.10;;;;;;;10.96;38.20;98727.28;10438754;28;20238;-65
2023/03/14 15:09:55;;;;;;;3.07;2.13;;;;;;;10.33;39.07;98712.66;10433635;28;20227;-65
2023/03/14 15:14:57;;;;;;;3.60;2.20;;;;;;;10.30;39.60;98712.25;10446734;28;20303;-64
2023/03/14 15:19:59;;;;;;;4.00;2.50;;;;;;;11.76;37.45;98678.63;10442660;28;20230;-66
2023/03/14 15:25:00;;;;;;;3.83;2.43;;;;;;;11.28;38.37;98697.06;10444212;28;20265;-64
2023/03/14 15:30:02;;;;;;;3.83;2.77;;;;;;;11.00;39.26;98739.22;10451036;28;20235;-65
2023/03/14 15:35:04;;;;;;;6.60;2.63;;;;;;;10.35;39.75;98775.81;10431700;28;20252;-65
2023/03/14 15:40:13;;;;;;;3.37;2.50;;;;;;;10.19;40.64;98751.16;10436267;28;20227;-66
2023/03/14 15:45:15;;;;;;;4.70;2.40;;;;;;;10.36;42.07;98783.63;10447839;28;20274;-66
2023/03/14 15:50:18;;;;;;;6.17;3.40;;;;;;;10.86;42.15;98734.94;10448131;28;20229;-65
2023/03/14 15:55:20;;;;;;;2.83;2.60;;;;;;;9.52;43.83;98769.75;10452629;28;20228;-65
2023/03/14 16:00:22;;;;;;;4.50;2.60;;;;;;;9.93;44.19;98755.44;10456865;28;20235;-65
2023/03/14 16:05:24;;;;;;;6.07;3.23;;;;;;;10.04;43.54;98737.16;10435350;28;20231;-65
2023/03/14 16:10:26;;;;;;;3.73;2.30;;;;;;;10.29;43.31;98722.13;10444750;28;20268;-65
2023/03/14 16:15:30;;;;;;;5.13;1.97;;;;;;;9.04;45.11;98745.78;10445507;28;20654;-65
2023/03/14 16:20:32;;;;;;;4.40;2.43;;;;;;;9.64;44.33;98761.97;10431805;28;20272;-68
2023/03/14 16:25:48;;;;;;;13.37;10.10;;;;;;;9.98;44.33;98759.38;10435159;28;20284;-66
2023/03/14 16:30:51;;;;;;;18.23;12.80;;;;;;;10.82;43.97;98697.09;10453256;28;20234;-67
2023/03/14 16:35:59;;;;;;;9.10;5.23;;;;;;;10.87;43.49;98691.09;10437885;28;20706;-65
2023/03/14 16:41:04;;;;;;;5.87;3.67;;;;;;;11.16;43.31;98675.50;10445832;28;20294;-64
2023/03/14 16:46:10;;;;;;;6.17;4.07;;;;;;;10.45;43.82;98757.47;10434208;28;20278;-63
2023/03/14 16:51:13;;;;;;;9.23;7.20;;;;;;;10.69;44.07;98775.50;10430854;28;20714;-64
2023/03/14 16:56:15;;;;;;;4.03;2.90;;;;;;;9.65;44.72;98834.91;10426163;28;20771;-65
2023/03/14 17:01:17;;;;;;;2.63;2.37;;;;;;;9.96;45.97;98813.03;10428939;28;20217;-64
2023/03/14 17:06:25;;;;;;;7.27;4.07;;;;;;;10.63;44.71;98804.97;10424593;28;20325;-65
2023/03/14 17:11:26;;;;;;;9.23;8.07;;;;;;;11.41;43.88;98743.34;10427111;28;20205;-64
2023/03/14 17:16:29;;;;;;;3.73;3.20;;;;;;;10.89;44.90;98783.53;10421339;28;20230;-65
2023/03/14 17:21:30;;;;;;;6.97;3.77;;;;;;;11.19;44.40;98766.94;10427171;28;20224;-65
2023/03/14 17:26:33;;;;;;;3.50;2.87;;;;;;;11.02;44.05;98838.88;10435205;28;20815;-65
2023/03/14 17:31:34;;;;;;;4.83;2.60;;;;;;;11.69;43.72;98808.31;10435870;28;20232;-65
2023/03/14 17:36:36;;;;;;;5.20;3.17;;;;;;;11.49;43.46;98840.56;10433458;28;20261;-64
2023/03/14 17:41:37;;;;;;;4.77;3.30;;;;;;;10.61;43.37;98882.75;10434278;28;20235;-65
2023/03/14 17:46:39;;;;;;;3.57;2.40;;;;;;;10.40;43.95;98904.38;10433598;28;20237;-67
2023/03/14 17:51:41;;;;;;;4.40;3.20;;;;;;;10.60;44.32;98891.81;10429515;28;20868;-67
2023/03/14 17:56:42;;;;;;;3.57;2.87;;;;;;;11.20;43.07;98893.59;10435582;28;20236;-65
2023/03/14 18:01:44;;;;;;;3.83;3.00;;;;;;;12.72;41.60;98825.88;10431440;28;20294;-66
2023/03/14 18:06:46;;;;;;;5.63;3.00;;;;;;;11.94;41.83;98926.31;10428567;28;20378;-66
2023/03/14 18:11:48;;;;;;;3.80;2.80;;;;;;;12.24;41.41;98889.00;10436531;28;20235;-66
2023/03/14 18:16:59;;;;;;;4.43;3.00;;;;;;;9.26;44.79;98972.56;10434512;28;20870;-64
2023/03/14 18:22:01;;;;;;;4.40;3.37;;;;;;;12.29;41.73;98909.84;10436892;28;20234;-65
2023/03/14 18:27:03;;;;;;;4.37;2.80;;;;;;;11.97;41.94;98979.53;10434781;28;20240;-64
2023/03/14 18:32:05;;;;;;;8.07;5.70;;;;;;;12.18;41.61;98968.50;10436571;28;20225;-62
2023/03/14 18:37:07;;;;;;;3.80;3.03;;;;;;;11.56;42.71;98973.47;10430688;28;20235;-63
2023/03/14 18:42:09;;;;;;;3.63;2.90;;;;;;;12.27;40.66;98969.06;10426395;28;20229;-63
2023/03/14 18:47:10;;;;;;;3.30;2.93;;;;;;;10.96;42.61;99031.63;10421536;28;20836;-64
2023/03/14 18:52:12;;;;;;;3.57;2.70;;;;;;;10.17;42.82;99039.25;10426680;28;20842;-64
2023/03/14 18:57:14;;;;;;;3.33;2.43;;;;;;;10.62;42.37;99066.34;10429820;28;20250;-64
2023/03/14 19:02:15;;;;;;;3.93;2.90;;;;;;;10.54;43.16;99047.78;10423577;28;20259;-64
2023/03/14 19:07:22;;;;;;;4.07;3.00;;;;;;;11.11;41.37;99060.88;10433170;28;20748;-64
2023/03/14 19:12:24;;;;;;;6.27;3.40;;;;;;;11.63;41.08;99045.81;10425514;28;20857;-64
2023/03/14 19:17:25;;;;;;;4.63;3.10;;;;;;;10.87;41.25;99084.53;10428069;28;20299;-64
2023/03/14 19:22:27;;;;;;;4.30;2.70;;;;;;;10.63;41.78;99070.66;10426659;28;20240;-63
2023/03/14 19:27:28;;;;;;;3.80;2.50;;;;;;;10.06;41.62;99067.38;10431540;28;20629;-64
2023/03/14 19:32:30;;;;;;;2.60;2.40;;;;;;;10.55;41.63;99100.28;10430325;28;20239;-64
2023/03/14 19:37:32;;;;;;;3.80;2.60;;;;;;;11.01;40.50;99078.16;10430979;28;20232;-65
2023/03/14 19:42:34;;;;;;;4.90;3.10;;;;;;;10.47;41.96;99097.78;10437313;28;20233;-64
2023/03/14 19:47:35;;;;;;;4.13;2.83;;;;;;;10.20;42.20;99094.19;10436661;28;20629;-65
2023/03/14 19:52:42;;;;;;;5.07;3.60;;;;;;;10.38;42.18;99091.78;10436982;28;20258;-66
2023/03/14 19:57:44;;;;;;;5.40;3.63;;;;;;;10.62;42.03;99105.66;10431498;28;20316;-65
2023/03/14 20:02:47;;;;;;;9.53;4.33;;;;;;;9.59;43.31;99103.66;10436491;28;20667;-66
2023/03/14 20:07:50;;;;;;;4.27;2.93;;;;;;;10.22;42.59;99118.84;10440761;28;20228;-64
2023/03/14 20:12:52;;;;;;;2.83;2.53;;;;;;;9.57;43.44;99119.88;10441669;28;20244;-65
2023/03/14 20:17:54;;;;;;;3.80;2.90;;;;;;;10.36;43.44;99090.31;10436843;28;20381;-65
2023/03/14 20:22:55;;;;;;;3.77;2.70;;;;;;;10.51;42.78;99078.47;10433477;28;20228;-65
2023/03/14 20:27:57;;;;;;;4.57;3.00;;;;;;;10.13;43.25;99104.84;10436971;28;20244;-65
2023/03/14 20:33:03;;;;;;;4.67;3.27;;;;;;;10.97;42.72;99046.69;10441243;28;20255;-66
2023/03/14 20:38:05;;;;;;;3.37;2.60;;;;;;;8.74;44.88;99135.50;10436107;28;20232;-65
2023/03/14 20:43:06;;;;;;;3.07;2.77;;;;;;;9.77;43.90;99168.13;10433554;28;20237;-65
2023/03/14 20:48:08;;;;;;;4.33;2.80;;;;;;;10.31;43.66;99157.78;10433316;28;21608;-63
2023/03/14 20:53:09;;;;;;;2.83;2.20;;;;;;;9.46;44.50;99183.66;10431262;28;20224;-67
2023/03/14 20:58:14;;;;;;;3.00;2.40;;;;;;;9.27;44.98;99169.13;10438405;28;20236;-66
2023/03/14 21:03:17;;;;;;;3.57;2.60;;;;;;;11.22;42.89;99120.00;10434045;28;20239;-65
2023/03/14 21:08:22;;;;;;;2.77;2.50;;;;;;;10.10;44.04;99185.44;10437154;28;20232;-66
2023/03/14 21:13:24;;;;;;;3.07;2.77;;;;;;;8.57;45.67;99214.91;10436414;28;20228;-64
2023/03/14 21:18:26;;;;;;;2.00;1.90;;;;;;;5.82;50.53;99218.75;10435286;28;20653;-65
2023/03/14 21:23:27;;;;;;;2.50;2.30;;;;;;;5.91;49.69;99258.53;10434026;28;20235;-64
2023/03/14 21:28:29;;;;;;;2.57;2.30;;;;;;;5.24;50.43;99283.34;10429410;28;20374;-65
2023/03/14 21:33:31;;;;;;;3.03;2.80;;;;;;;7.18;47.52;99268.34;10429389;28;21218;-64
2023/03/14 21:38:33;;;;;;;3.13;2.90;;;;;;;6.67;48.00;99270.53;10428252;28;20240;-64
2023/03/14 21:43:34;;;;;;;3.00;2.80;;;;;;;5.13;49.51;99284.44;10430682;28;20238;-64
2023/03/14 21:48:36;;;;;;;5.73;2.97;;;;;;;6.67;48.04;99243.09;10427076;28;20228;-64
2023/03/14 21:53:37;;;;;;;3.60;3.30;;;;;;;6.05;49.26;99250.72;10431646;28;20266;-64
2023/03/14 21:58:39;;;;;;;3.70;3.40;;;;;;;5.81;49.06;99291.41;10430351;28;20231;-64
2023/03/14 22:03:44;;;;;;;3.60;3.30;;;;;;;5.42;49.49;99334.47;10428759;28;20724;-64
2023/03/14 22:08:46;;;;;;;3.33;3.03;;;;;;;6.58;48.44;99293.66;10433465;28;20227;-63
2023/03/14 22:13:48;;;;;;;4.73;3.80;;;;;;;5.11;48.28;99372.13;10427538;28;20227;-64
2023/03/14 22:18:49;;;;;;;2.97;2.70;;;;;;;9.66;43.77;99258.66;10425849;28;20271;-64
2023/03/14 22:23:51;;;;;;;3.30;3.10;;;;;;;8.44;43.45;99412.88;10435593;28;20232;-64
2023/03/14 22:28:52;;;;;;;4.80;2.67;;;;;;;10.66;41.03;99369.97;10431777;28;20236;-65
2023/03/14 22:33:54;;;;;;;3.70;2.60;;;;;;;12.29;38.76;99360.50;10430346;28;20278;-65
2023/03/14 22:38:57;;;;;;;3.43;3.10;;;;;;;11.01;40.37;99420.03;10432291;28;20263;-64
2023/03/14 22:43:59;;;;;;;3.57;3.20;;;;;;;11.16;39.85;99438.66;10431669;28;20231;-65
2023/03/14 22:49:00;;;;;;;3.00;2.80;;;;;;;11.84;38.95;99470.16;10431094;28;20235;-65
2023/03/14 22:54:02;;;;;;;4.30;2.80;;;;;;;9.64;40.53;99482.44;10430972;28;20314;-65
2023/03/14 22:59:04;;;;;;;2.60;2.50;;;;;;;11.87;39.90;99467.06;10428660;28;20225;-65
2023/03/14 23:04:05;;;;;;;2.87;2.33;;;;;;;12.03;38.75;99523.03;10428986;28;20239;-65
2023/03/14 23:09:07;;;;;;;3.47;3.17;;;;;;;11.93;39.40;99509.16;10431966;28;20224;-64
2023/03/14 23:14:09;;;;;;;3.13;2.60;;;;;;;12.39;38.57;99503.13;10430703;28;20231;-64
2023/03/14 23:19:10;;;;;;;3.43;2.70;;;;;;;12.33;38.44;99530.75;10430786;28;20224;-64
2023/03/14 23:24:12;;;;;;;2.90;2.60;;;;;;;12.05;38.32;99571.94;10433333;28;20794;-65
2023/03/14 23:29:14;;;;;;;4.63;2.77;;;;;;;12.44;38.04;99558.88;10434496;28;20228;-65
2023/03/14 23:34:15;;;;;;;2.73;2.53;;;;;;;11.16;39.68;99589.47;10427631;28;20227;-64
2023/03/14 23:39:17;;;;;;;2.47;2.27;;;;;;;7.59;42.65;99599.28;10429556;28;20707;-65